Terminal Aerodrome Forecast
Issued by NWS

Home | Current Version | Previous Version | Graphics & Text | Print | Product List | Glossary On
Versions: 1 2 3 4 5 6 7 8 9 10 11 12 13 14 15 16 17
000
FTUS43 KTOP 210547
TAFMHK
TAF
KMHK 210547Z 2106/2206 09002KT 2SM BR SCT250
      TEMPO 2106/2110 1/4SM FG VV002
     FM211100 09003KT 4SM BR BKN008
      TEMPO 2111/2114 2SM BR BKN005
     FM211500 13005KT P6SM BKN015
     FM211700 15006KT P6SM SCT035=

USA.gov is the U.S. government's official web portal to all federal, state and local government web resources and services.